sensor_id;sensor_type;location;lat;lon;timestamp;pressure;altitude;pressure_sealevel;temperature;humidity
40946;BME280;55635;50.264;11.918;2023-05-09T00:00:28;96094.84;;;12.55;51.77
40946;BME280;55635;50.264;11.918;2023-05-09T00:03:09;96104.09;;;12.30;53.41
40946;BME280;55635;50.264;11.918;2023-05-09T00:05:52;96094.75;;;12.48;53.49
40946;BME280;55635;50.264;11.918;2023-05-09T00:08:33;96105.00;;;12.51;53.05
40946;BME280;55635;50.264;11.918;2023-05-09T00:11:40;96094.09;;;12.61;52.41
40946;BME280;55635;50.264;11.918;2023-05-09T00:14:20;96079.50;;;12.57;51.73
40946;BME280;55635;50.264;11.918;2023-05-09T00:17:01;96078.50;;;12.58;51.81
40946;BME280;55635;50.264;11.918;2023-05-09T00:19:43;96082.53;;;12.54;51.66
40946;BME280;55635;50.264;11.918;2023-05-09T00:22:25;96084.41;;;12.53;51.81
40946;BME280;55635;50.264;11.918;2023-05-09T00:25:10;96085.28;;;12.61;51.34
40946;BME280;55635;50.264;11.918;2023-05-09T00:28:15;96078.34;;;12.60;51.79
40946;BME280;55635;50.264;11.918;2023-05-09T00:30:57;96082.63;;;12.61;52.09
40946;BME280;55635;50.264;11.918;2023-05-09T00:33:38;96078.59;;;12.65;51.54
40946;BME280;55635;50.264;11.918;2023-05-09T00:36:20;96079.28;;;12.37;52.92
40946;BME280;55635;50.264;11.918;2023-05-09T00:39:01;96068.69;;;12.59;51.76
40946;BME280;55635;50.264;11.918;2023-05-09T00:41:44;96076.63;;;12.37;52.17
40946;BME280;55635;50.264;11.918;2023-05-09T00:44:25;96063.03;;;12.47;52.16
40946;BME280;55635;50.264;11.918;2023-05-09T00:47:07;96061.56;;;12.30;52.90
40946;BME280;55635;50.264;11.918;2023-05-09T00:49:48;96071.28;;;12.37;52.54
40946;BME280;55635;50.264;11.918;2023-05-09T00:52:29;96058.81;;;12.23;53.16
40946;BME280;55635;50.264;11.918;2023-05-09T00:55:12;96062.22;;;12.02;53.00
40946;BME280;55635;50.264;11.918;2023-05-09T00:57:54;96056.84;;;12.11;53.54
40946;BME280;55635;50.264;11.918;2023-05-09T01:00:35;96055.63;;;12.13;53.02
40946;BME280;55635;50.264;11.918;2023-05-09T01:03:17;96054.63;;;11.99;53.82
40946;BME280;55635;50.264;11.918;2023-05-09T01:06:15;96054.63;;;11.99;54.17
40946;BME280;55635;50.264;11.918;2023-05-09T01:12:20;96068.00;;;11.69;55.85
40946;BME280;55635;50.264;11.918;2023-05-09T01:15:18;96056.53;;;11.16;57.35
40946;BME280;55635;50.264;11.918;2023-05-09T01:21:16;96031.25;;;11.06;58.07
40946;BME280;55635;50.264;11.918;2023-05-09T01:29:57;96059.72;;;10.58;60.52
40946;BME280;55635;50.264;11.918;2023-05-09T01:32:42;96053.97;;;10.55;59.44
40946;BME280;55635;50.264;11.918;2023-05-09T01:35:25;96053.09;;;10.62;59.39
40946;BME280;55635;50.264;11.918;2023-05-09T01:38:11;96039.13;;;10.46;59.50
40946;BME280;55635;50.264;11.918;2023-05-09T01:40:54;96063.81;;;10.69;59.44
40946;BME280;55635;50.264;11.918;2023-05-09T01:43:37;96053.66;;;10.50;59.20
40946;BME280;55635;50.264;11.918;2023-05-09T01:46:21;96055.88;;;10.69;58.84
40946;BME280;55635;50.264;11.918;2023-05-09T01:49:03;96043.13;;;10.64;59.40
40946;BME280;55635;50.264;11.918;2023-05-09T01:51:46;96051.00;;;10.50;59.54
40946;BME280;55635;50.264;11.918;2023-05-09T01:54:29;96063.59;;;10.48;60.40
40946;BME280;55635;50.264;11.918;2023-05-09T01:57:10;96043.47;;;10.30;60.36
40946;BME280;55635;50.264;11.918;2023-05-09T01:59:52;96043.22;;;10.17;61.01
40946;BME280;55635;50.264;11.918;2023-05-09T02:02:39;96041.97;;;10.36;60.44
40946;BME280;55635;50.264;11.918;2023-05-09T02:05:26;96051.34;;;10.47;60.62
40946;BME280;55635;50.264;11.918;2023-05-09T02:08:08;96025.31;;;10.19;60.67
40946;BME280;55635;50.264;11.918;2023-05-09T02:10:49;96038.50;;;10.35;60.79
40946;BME280;55635;50.264;11.918;2023-05-09T02:13:31;96043.09;;;10.42;60.16
40946;BME280;55635;50.264;11.918;2023-05-09T02:16:15;96037.25;;;10.15;60.81
40946;BME280;55635;50.264;11.918;2023-05-09T02:18:56;96030.13;;;10.16;61.43
40946;BME280;55635;50.264;11.918;2023-05-09T02:21:38;96035.59;;;10.14;61.35
40946;BME280;55635;50.264;11.918;2023-05-09T02:24:19;96041.13;;;9.97;61.57
40946;BME280;55635;50.264;11.918;2023-05-09T02:27:04;96030.28;;;9.51;62.94
40946;BME280;55635;50.264;11.918;2023-05-09T02:29:51;96043.50;;;9.67;62.72
40946;BME280;55635;50.264;11.918;2023-05-09T02:32:36;96054.78;;;9.53;63.55
40946;BME280;55635;50.264;11.918;2023-05-09T02:35:18;96046.16;;;9.51;63.15
40946;BME280;55635;50.264;11.918;2023-05-09T02:38:01;96044.22;;;9.37;64.06
40946;BME280;55635;50.264;11.918;2023-05-09T02:40:46;96043.03;;;9.40;64.11
40946;BME280;55635;50.264;11.918;2023-05-09T02:43:27;96037.59;;;9.33;64.03
40946;BME280;55635;50.264;11.918;2023-05-09T02:46:09;96047.69;;;9.38;64.13
40946;BME280;55635;50.264;11.918;2023-05-09T02:48:50;96039.94;;;9.28;64.07
40946;BME280;55635;50.264;11.918;2023-05-09T02:51:32;96037.09;;;9.29;64.25
40946;BME280;55635;50.264;11.918;2023-05-09T02:54:13;96030.00;;;9.30;64.36
40946;BME280;55635;50.264;11.918;2023-05-09T02:56:57;96037.09;;;9.29;64.22
40946;BME280;55635;50.264;11.918;2023-05-09T02:59:38;96030.34;;;9.19;64.41
40946;BME280;55635;50.264;11.918;2023-05-09T03:02:45;96033.63;;;9.21;64.26
40946;BME280;55635;50.264;11.918;2023-05-09T03:05:30;96027.03;;;9.17;64.65
40946;BME280;55635;50.264;11.918;2023-05-09T03:08:16;96027.84;;;9.34;63.91
40946;BME280;55635;50.264;11.918;2023-05-09T03:10:57;96032.34;;;9.17;64.45
40946;BME280;55635;50.264;11.918;2023-05-09T03:13:40;96035.44;;;9.20;64.23
40946;BME280;55635;50.264;11.918;2023-05-09T03:16:26;96030.00;;;9.30;63.91
40946;BME280;55635;50.264;11.918;2023-05-09T03:19:07;96027.50;;;9.45;63.22
40946;BME280;55635;50.264;11.918;2023-05-09T03:21:48;96031.16;;;9.44;63.65
40946;BME280;55635;50.264;11.918;2023-05-09T03:24:29;96025.50;;;9.47;63.55
40946;BME280;55635;50.264;11.918;2023-05-09T03:27:10;96020.91;;;9.41;63.75
40946;BME280;55635;50.264;11.918;2023-05-09T03:29:51;96017.25;;;9.50;63.03
40946;BME280;55635;50.264;11.918;2023-05-09T03:32:33;96022.56;;;9.42;63.17
40946;BME280;55635;50.264;11.918;2023-05-09T03:35:15;96033.91;;;9.66;62.24
40946;BME280;55635;50.264;11.918;2023-05-09T03:37:56;96022.81;;;9.71;62.54
40946;BME280;55635;50.264;11.918;2023-05-09T03:40:37;96022.31;;;9.67;62.92
40946;BME280;55635;50.264;11.918;2023-05-09T03:43:43;96019.19;;;9.64;62.15
40946;BME280;55635;50.264;11.918;2023-05-09T03:46:26;96018.19;;;9.65;62.28
40946;BME280;55635;50.264;11.918;2023-05-09T03:49:07;96014.94;;;9.47;62.79
40946;BME280;55635;50.264;11.918;2023-05-09T03:51:50;96017.53;;;9.63;62.45
40946;BME280;55635;50.264;11.918;2023-05-09T03:54:32;96025.09;;;9.82;61.39
40946;BME280;55635;50.264;11.918;2023-05-09T03:57:15;96022.63;;;9.80;61.56
40946;BME280;55635;50.264;11.918;2023-05-09T04:00:02;96023.13;;;9.84;62.30
40946;BME280;55635;50.264;11.918;2023-05-09T04:02:54;96030.00;;;10.01;61.26
40946;BME280;55635;50.264;11.918;2023-05-09T04:05:44;96025.31;;;10.11;61.14
40946;BME280;55635;50.264;11.918;2023-05-09T04:08:34;96020.22;;;10.02;60.82
40946;BME280;55635;50.264;11.918;2023-05-09T04:11:18;96010.28;;;10.04;60.83
40946;BME280;55635;50.264;11.918;2023-05-09T04:14:23;96019.34;;;10.09;60.59
40946;BME280;55635;50.264;11.918;2023-05-09T04:17:06;96013.47;;;9.99;60.81
40946;BME280;55635;50.264;11.918;2023-05-09T04:19:47;96001.63;;;9.71;62.47
40946;BME280;55635;50.264;11.918;2023-05-09T04:22:28;96014.34;;;9.83;61.87
40946;BME280;55635;50.264;11.918;2023-05-09T04:25:09;96014.41;;;9.51;64.08
40946;BME280;55635;50.264;11.918;2023-05-09T04:28:00;96020.56;;;9.44;64.29
40946;BME280;55635;50.264;11.918;2023-05-09T04:30:43;96020.22;;;9.47;64.96
40946;BME280;55635;50.264;11.918;2023-05-09T04:33:24;96015.59;;;9.41;64.19
40946;BME280;55635;50.264;11.918;2023-05-09T04:36:07;96013.47;;;8.88;67.47
40946;BME280;55635;50.264;11.918;2023-05-09T04:38:48;96019.59;;;9.04;68.23
40946;BME280;55635;50.264;11.918;2023-05-09T04:41:33;96015.47;;;9.02;67.23
40946;BME280;55635;50.264;11.918;2023-05-09T04:44:15;96012.81;;;8.94;67.90
40946;BME280;55635;50.264;11.918;2023-05-09T04:46:57;96016.28;;;8.94;67.87
40946;BME280;55635;50.264;11.918;2023-05-09T04:49:39;96018.44;;;9.07;68.53
40946;BME280;55635;50.264;11.918;2023-05-09T04:52:20;96012.84;;;9.02;68.91
40946;BME280;55635;50.264;11.918;2023-05-09T04:55:01;96016.63;;;9.07;68.08
40946;BME280;55635;50.264;11.918;2023-05-09T04:57:46;96012.47;;;9.29;67.90
40946;BME280;55635;50.264;11.918;2023-05-09T05:00:30;96002.72;;;9.38;66.05
40946;BME280;55635;50.264;11.918;2023-05-09T05:03:12;96012.00;;;9.25;66.47
40946;BME280;55635;50.264;11.918;2023-05-09T05:05:53;96002.72;;;9.21;67.11
40946;BME280;55635;50.264;11.918;2023-05-09T05:08:34;96009.31;;;9.50;66.37
40946;BME280;55635;50.264;11.918;2023-05-09T05:11:15;96007.03;;;9.14;67.56
40946;BME280;55635;50.264;11.918;2023-05-09T05:13:58;96010.94;;;9.59;66.66
40946;BME280;55635;50.264;11.918;2023-05-09T05:16:39;96007.63;;;9.57;66.42
40946;BME280;55635;50.264;11.918;2023-05-09T05:19:26;96004.38;;;9.39;67.37
40946;BME280;55635;50.264;11.918;2023-05-09T05:22:08;95997.69;;;9.59;66.15
40946;BME280;55635;50.264;11.918;2023-05-09T05:24:52;96014.16;;;9.85;67.29
40946;BME280;55635;50.264;11.918;2023-05-09T05:27:33;95996.72;;;9.52;65.16
40946;BME280;55635;50.264;11.918;2023-05-09T05:30:14;96006.28;;;9.69;64.70
40946;BME280;55635;50.264;11.918;2023-05-09T05:32:56;95994.19;;;10.13;65.40
40946;BME280;55635;50.264;11.918;2023-05-09T05:35:41;95987.16;;;10.36;63.43
40946;BME280;55635;50.264;11.918;2023-05-09T05:38:22;96003.06;;;10.28;63.94
40946;BME280;55635;50.264;11.918;2023-05-09T05:41:06;95994.81;;;10.23;64.43
40946;BME280;55635;50.264;11.918;2023-05-09T05:44:16;95986.88;;;10.23;64.17
40946;BME280;55635;50.264;11.918;2023-05-09T05:47:03;95994.41;;;10.34;64.65
40946;BME280;55635;50.264;11.918;2023-05-09T05:49:45;95986.03;;;10.23;65.19
40946;BME280;55635;50.264;11.918;2023-05-09T05:52:26;95971.78;;;10.55;63.35
40946;BME280;55635;50.264;11.918;2023-05-09T05:55:13;95976.66;;;10.66;64.03
40946;BME280;55635;50.264;11.918;2023-05-09T05:57:55;95975.13;;;10.49;64.36
40946;BME280;55635;50.264;11.918;2023-05-09T06:00:36;95975.69;;;10.67;63.88
40946;BME280;55635;50.264;11.918;2023-05-09T06:03:20;95980.28;;;10.73;61.93
40946;BME280;55635;50.264;11.918;2023-05-09T06:06:10;95983.59;;;10.89;62.22
40946;BME280;55635;50.264;11.918;2023-05-09T06:08:51;95974.69;;;10.82;62.66
40946;BME280;55635;50.264;11.918;2023-05-09T06:11:32;95975.28;;;11.15;61.66
40946;BME280;55635;50.264;11.918;2023-05-09T06:14:13;95986.78;;;11.60;59.13
40946;BME280;55635;50.264;11.918;2023-05-09T06:16:54;95962.41;;;12.50;60.28
40946;BME280;55635;50.264;11.918;2023-05-09T06:19:37;95957.69;;;13.09;57.00
40946;BME280;55635;50.264;11.918;2023-05-09T06:22:18;95967.22;;;12.62;57.09
40946;BME280;55635;50.264;11.918;2023-05-09T06:24:59;95963.06;;;12.17;58.18
40946;BME280;55635;50.264;11.918;2023-05-09T06:27:41;95963.69;;;12.76;58.56
40946;BME280;55635;50.264;11.918;2023-05-09T06:30:22;95967.16;;;12.76;56.20
40946;BME280;55635;50.264;11.918;2023-05-09T06:33:03;95960.00;;;12.98;59.25
40946;BME280;55635;50.264;11.918;2023-05-09T06:35:44;95941.63;;;12.39;57.47
40946;BME280;55635;50.264;11.918;2023-05-09T06:38:25;95939.72;;;12.97;57.71
40946;BME280;55635;50.264;11.918;2023-05-09T06:41:06;95944.91;;;13.26;55.51
40946;BME280;55635;50.264;11.918;2023-05-09T06:44:12;95946.56;;;13.96;52.69
40946;BME280;55635;50.264;11.918;2023-05-09T06:46:53;95938.91;;;14.27;53.42
40946;BME280;55635;50.264;11.918;2023-05-09T06:49:34;95927.00;;;14.23;54.09
40946;BME280;55635;50.264;11.918;2023-05-09T06:52:15;95919.72;;;14.51;50.69
40946;BME280;55635;50.264;11.918;2023-05-09T06:54:56;95920.41;;;15.19;51.79
40946;BME280;55635;50.264;11.918;2023-05-09T06:57:38;95910.34;;;14.95;52.01
40946;BME280;55635;50.264;11.918;2023-05-09T07:00:22;95915.88;;;15.33;51.54
40946;BME280;55635;50.264;11.918;2023-05-09T07:03:03;95897.44;;;16.02;47.91
40946;BME280;55635;50.264;11.918;2023-05-09T07:05:46;95904.59;;;15.50;48.50
40946;BME280;55635;50.264;11.918;2023-05-09T07:08:30;95899.44;;;15.55;50.79
40946;BME280;55635;50.264;11.918;2023-05-09T07:11:11;95902.94;;;15.62;48.12
40946;BME280;55635;50.264;11.918;2023-05-09T07:13:51;95909.47;;;15.66;50.07
40946;BME280;55635;50.264;11.918;2023-05-09T07:16:32;95903.72;;;15.63;49.82
40946;BME280;55635;50.264;11.918;2023-05-09T07:19:13;95890.41;;;15.56;49.76
40946;BME280;55635;50.264;11.918;2023-05-09T07:21:54;95897.34;;;15.44;51.41
40946;BME280;55635;50.264;11.918;2023-05-09T07:24:41;95895.97;;;15.29;48.41
40946;BME280;55635;50.264;11.918;2023-05-09T07:27:25;95891.81;;;15.65;49.50
40946;BME280;55635;50.264;11.918;2023-05-09T07:30:07;95883.19;;;15.44;47.52
40946;BME280;55635;50.264;11.918;2023-05-09T07:32:48;95880.63;;;15.88;49.77
40946;BME280;55635;50.264;11.918;2023-05-09T07:35:29;95866.56;;;16.81;46.84
40946;BME280;55635;50.264;11.918;2023-05-09T07:38:10;95868.53;;;16.61;45.61
40946;BME280;55635;50.264;11.918;2023-05-09T07:40:51;95861.28;;;15.93;46.39
40946;BME280;55635;50.264;11.918;2023-05-09T07:43:34;95854.75;;;16.51;46.35
40946;BME280;55635;50.264;11.918;2023-05-09T07:46:17;95848.41;;;16.83;47.37
40946;BME280;55635;50.264;11.918;2023-05-09T07:48:58;95842.41;;;17.49;45.97
40946;BME280;55635;50.264;11.918;2023-05-09T07:51:39;95851.97;;;17.02;46.23
40946;BME280;55635;50.264;11.918;2023-05-09T07:54:20;95840.69;;;16.69;46.66
40946;BME280;55635;50.264;11.918;2023-05-09T07:57:01;95845.31;;;16.55;46.26
40946;BME280;55635;50.264;11.918;2023-05-09T07:59:42;95847.28;;;16.91;45.95
40946;BME280;55635;50.264;11.918;2023-05-09T08:02:23;95835.16;;;16.32;45.32
40946;BME280;55635;50.264;11.918;2023-05-09T08:05:06;95844.88;;;16.58;47.26
40946;BME280;55635;50.264;11.918;2023-05-09T08:07:47;95842.47;;;16.44;45.60
40946;BME280;55635;50.264;11.918;2023-05-09T08:10:28;95833.31;;;17.14;44.02
40946;BME280;55635;50.264;11.918;2023-05-09T08:13:13;95828.06;;;17.01;45.72
40946;BME280;55635;50.264;11.918;2023-05-09T08:15:54;95830.84;;;17.12;46.84
40946;BME280;55635;50.264;11.918;2023-05-09T08:18:35;95828.75;;;17.14;45.03
40946;BME280;55635;50.264;11.918;2023-05-09T08:21:16;95830.44;;;16.91;45.76
40946;BME280;55635;50.264;11.918;2023-05-09T08:23:57;95826.28;;;17.13;46.24
40946;BME280;55635;50.264;11.918;2023-05-09T08:26:37;95822.31;;;18.42;40.27
40946;BME280;55635;50.264;11.918;2023-05-09T08:29:18;95824.75;;;18.44;39.73
40946;BME280;55635;50.264;11.918;2023-05-09T08:31:59;95813.13;;;18.20;42.08
40946;BME280;55635;50.264;11.918;2023-05-09T08:34:40;95815.25;;;17.46;42.85
40946;BME280;55635;50.264;11.918;2023-05-09T08:37:21;95800.09;;;18.06;41.84
40946;BME280;55635;50.264;11.918;2023-05-09T08:40:07;95797.16;;;18.25;44.32
40946;BME280;55635;50.264;11.918;2023-05-09T08:42:51;95793.16;;;17.68;43.42
40946;BME280;55635;50.264;11.918;2023-05-09T08:45:36;95791.56;;;17.97;41.91
40946;BME280;55635;50.264;11.918;2023-05-09T08:48:21;95781.53;;;18.34;41.39
40946;BME280;55635;50.264;11.918;2023-05-09T08:51:06;95779.00;;;18.09;40.18
40946;BME280;55635;50.264;11.918;2023-05-09T08:53:47;95776.97;;;19.34;40.11
40946;BME280;55635;50.264;11.918;2023-05-09T08:56:30;95773.25;;;18.65;40.95
40946;BME280;55635;50.264;11.918;2023-05-09T08:59:11;95783.03;;;18.30;40.78
40946;BME280;55635;50.264;11.918;2023-05-09T09:01:53;95786.44;;;18.37;42.15
40946;BME280;55635;50.264;11.918;2023-05-09T09:04:36;95774.13;;;18.59;40.88
40946;BME280;55635;50.264;11.918;2023-05-09T09:07:20;95776.53;;;17.78;44.32
40946;BME280;55635;50.264;11.918;2023-05-09T09:10:03;95777.19;;;18.21;40.95
40946;BME280;55635;50.264;11.918;2023-05-09T09:12:44;95771.44;;;17.88;44.02
40946;BME280;55635;50.264;11.918;2023-05-09T09:15:33;95776.06;;;18.40;42.97
40946;BME280;55635;50.264;11.918;2023-05-09T09:18:21;95765.88;;;19.19;43.24
40946;BME280;55635;50.264;11.918;2023-05-09T09:21:09;95757.97;;;18.36;39.57
40946;BME280;55635;50.264;11.918;2023-05-09T09:23:54;95760.41;;;18.90;40.62
40946;BME280;55635;50.264;11.918;2023-05-09T09:26:46;95748.47;;;18.63;41.46
40946;BME280;55635;50.264;11.918;2023-05-09T09:29:28;95742.41;;;19.02;43.30
40946;BME280;55635;50.264;11.918;2023-05-09T09:32:10;95746.94;;;19.02;38.02
40946;BME280;55635;50.264;11.918;2023-05-09T09:35:06;95738.88;;;19.25;39.67
40946;BME280;55635;50.264;11.918;2023-05-09T09:37:48;95735.53;;;18.95;39.11
40946;BME280;55635;50.264;11.918;2023-05-09T09:40:31;95729.78;;;18.91;39.01
40946;BME280;55635;50.264;11.918;2023-05-09T09:43:13;95723.94;;;18.94;39.87
40946;BME280;55635;50.264;11.918;2023-05-09T09:45:59;95707.72;;;19.01;42.96
40946;BME280;55635;50.264;11.918;2023-05-09T09:48:45;95718.34;;;19.08;41.99
40946;BME280;55635;50.264;11.918;2023-05-09T09:51:33;95702.41;;;19.41;38.93
40946;BME280;55635;50.264;11.918;2023-05-09T09:54:14;95698.09;;;19.28;38.50
40946;BME280;55635;50.264;11.918;2023-05-09T09:56:55;95709.25;;;20.17;40.92
40946;BME280;55635;50.264;11.918;2023-05-09T09:59:36;95704.56;;;19.95;38.85
40946;BME280;55635;50.264;11.918;2023-05-09T10:02:22;95703.38;;;19.91;40.54
40946;BME280;55635;50.264;11.918;2023-05-09T10:05:07;95699.75;;;20.26;39.15
40946;BME280;55635;50.264;11.918;2023-05-09T10:08:16;95684.16;;;20.61;41.54
40946;BME280;55635;50.264;11.918;2023-05-09T10:10:58;95681.06;;;21.46;41.27
40946;BME280;55635;50.264;11.918;2023-05-09T10:13:39;95674.56;;;21.03;37.69
40946;BME280;55635;50.264;11.918;2023-05-09T10:16:20;95679.34;;;20.46;40.71
40946;BME280;55635;50.264;11.918;2023-05-09T10:19:02;95665.00;;;21.12;38.57
40946;BME280;55635;50.264;11.918;2023-05-09T10:21:45;95667.47;;;22.11;36.28
40946;BME280;55635;50.264;11.918;2023-05-09T10:27:20;95658.13;;;22.50;37.37
40946;BME280;55635;50.264;11.918;2023-05-09T10:30:18;95644.50;;;22.35;36.43
40946;BME280;55635;50.264;11.918;2023-05-09T10:33:09;95646.63;;;23.12;34.19
40946;BME280;55635;50.264;11.918;2023-05-09T10:35:53;95639.31;;;23.64;34.17
40946;BME280;55635;50.264;11.918;2023-05-09T10:38:36;95631.56;;;23.26;31.68
40946;BME280;55635;50.264;11.918;2023-05-09T10:41:19;95640.09;;;23.55;33.64
40946;BME280;55635;50.264;11.918;2023-05-09T10:44:01;95631.06;;;24.31;34.03
40946;BME280;55635;50.264;11.918;2023-05-09T10:46:43;95634.84;;;23.33;33.35
40946;BME280;55635;50.264;11.918;2023-05-09T10:49:25;95621.19;;;23.65;32.63
40946;BME280;55635;50.264;11.918;2023-05-09T10:52:07;95619.09;;;23.20;32.82
40946;BME280;55635;50.264;11.918;2023-05-09T10:54:59;95602.72;;;23.47;31.70
40946;BME280;55635;50.264;11.918;2023-05-09T10:57:52;95614.75;;;23.14;38.71
40946;BME280;55635;50.264;11.918;2023-05-09T11:00:33;95615.00;;;23.95;34.05
40946;BME280;55635;50.264;11.918;2023-05-09T11:03:20;95599.06;;;24.28;33.69
40946;BME280;55635;50.264;11.918;2023-05-09T11:06:02;95590.31;;;23.66;31.82
40946;BME280;55635;50.264;11.918;2023-05-09T11:08:42;95601.72;;;23.78;33.67
40946;BME280;55635;50.264;11.918;2023-05-09T11:11:23;95592.22;;;22.56;32.20
40946;BME280;55635;50.264;11.918;2023-05-09T11:14:05;95582.50;;;23.07;31.01
40946;BME280;55635;50.264;11.918;2023-05-09T11:17:02;95571.44;;;22.62;30.44
40946;BME280;55635;50.264;11.918;2023-05-09T11:22:29;95543.72;;;23.59;30.17
40946;BME280;55635;50.264;11.918;2023-05-09T11:25:13;95544.31;;;24.31;28.75
40946;BME280;55635;50.264;11.918;2023-05-09T11:28:00;95535.00;;;24.78;29.62
40946;BME280;55635;50.264;11.918;2023-05-09T11:30:42;95535.78;;;25.58;27.49
40946;BME280;55635;50.264;11.918;2023-05-09T11:33:26;95535.84;;;25.91;26.19
40946;BME280;55635;50.264;11.918;2023-05-09T11:39:08;95544.59;;;24.05;29.25
40946;BME280;55635;50.264;11.918;2023-05-09T11:41:49;95527.34;;;23.18;32.49
40946;BME280;55635;50.264;11.918;2023-05-09T11:44:30;95525.41;;;22.52;27.74
40946;BME280;55635;50.264;11.918;2023-05-09T11:47:13;95532.13;;;23.63;28.33
40946;BME280;55635;50.264;11.918;2023-05-09T11:49:53;95525.13;;;22.95;28.77
40946;BME280;55635;50.264;11.918;2023-05-09T11:52:36;95512.03;;;23.44;27.80
40946;BME280;55635;50.264;11.918;2023-05-09T11:55:21;95517.22;;;23.71;24.33
40946;BME280;55635;50.264;11.918;2023-05-09T11:58:05;95500.19;;;22.78;26.82
40946;BME280;55635;50.264;11.918;2023-05-09T12:00:47;95506.41;;;24.26;30.39
40946;BME280;55635;50.264;11.918;2023-05-09T12:03:28;95492.84;;;24.01;28.59
40946;BME280;55635;50.264;11.918;2023-05-09T12:06:17;95478.22;;;24.17;26.78
40946;BME280;55635;50.264;11.918;2023-05-09T12:08:58;95477.59;;;24.61;26.13
40946;BME280;55635;50.264;11.918;2023-05-09T12:11:50;95493.94;;;23.90;27.31
40946;BME280;55635;50.264;11.918;2023-05-09T12:14:33;95479.31;;;23.86;27.55
40946;BME280;55635;50.264;11.918;2023-05-09T12:17:15;95488.72;;;23.33;24.01
40946;BME280;55635;50.264;11.918;2023-05-09T12:19:58;95481.44;;;23.49;24.64
40946;BME280;55635;50.264;11.918;2023-05-09T12:23:06;95469.38;;;24.71;26.27
40946;BME280;55635;50.264;11.918;2023-05-09T12:25:53;95468.84;;;24.89;28.01
40946;BME280;55635;50.264;11.918;2023-05-09T12:28:34;95462.50;;;25.04;27.59
40946;BME280;55635;50.264;11.918;2023-05-09T12:31:41;95457.19;;;24.68;26.33
40946;BME280;55635;50.264;11.918;2023-05-09T12:34:26;95449.63;;;25.24;23.04
40946;BME280;55635;50.264;11.918;2023-05-09T12:37:18;95449.53;;;23.66;26.43
40946;BME280;55635;50.264;11.918;2023-05-09T12:40:10;95454.63;;;23.27;26.44
40946;BME280;55635;50.264;11.918;2023-05-09T12:43:20;95445.63;;;23.06;28.94
40946;BME280;55635;50.264;11.918;2023-05-09T12:46:02;95441.34;;;22.48;24.88
40946;BME280;55635;50.264;11.918;2023-05-09T12:48:43;95434.88;;;23.92;25.85
40946;BME280;55635;50.264;11.918;2023-05-09T12:51:26;95424.00;;;24.07;25.71
40946;BME280;55635;50.264;11.918;2023-05-09T12:54:07;95427.47;;;22.87;26.83
40946;BME280;55635;50.264;11.918;2023-05-09T12:56:51;95424.25;;;23.15;29.78
40946;BME280;55635;50.264;11.918;2023-05-09T12:59:33;95426.25;;;22.57;30.92
40946;BME280;55635;50.264;11.918;2023-05-09T13:02:14;95429.00;;;22.62;26.47
40946;BME280;55635;50.264;11.918;2023-05-09T13:05:13;95417.25;;;22.42;28.89
40946;BME280;55635;50.264;11.918;2023-05-09T13:07:57;95407.09;;;22.64;28.23
40946;BME280;55635;50.264;11.918;2023-05-09T13:10:38;95393.72;;;23.29;27.71
40946;BME280;55635;50.264;11.918;2023-05-09T13:13:19;95408.59;;;22.35;26.14
40946;BME280;55635;50.264;11.918;2023-05-09T13:16:02;95398.88;;;22.39;28.70
40946;BME280;55635;50.264;11.918;2023-05-09T13:18:43;95399.75;;;22.54;30.38
40946;BME280;55635;50.264;11.918;2023-05-09T13:21:25;95386.53;;;22.63;25.22
40946;BME280;55635;50.264;11.918;2023-05-09T13:24:06;95386.38;;;21.76;31.38
40946;BME280;55635;50.264;11.918;2023-05-09T13:26:47;95391.53;;;23.37;29.51
40946;BME280;55635;50.264;11.918;2023-05-09T13:29:27;95390.84;;;22.59;26.73
40946;BME280;55635;50.264;11.918;2023-05-09T13:32:08;95391.00;;;22.27;28.25
40946;BME280;55635;50.264;11.918;2023-05-09T13:34:52;95381.94;;;22.63;28.50
40946;BME280;55635;50.264;11.918;2023-05-09T13:37:34;95374.22;;;23.22;28.61
40946;BME280;55635;50.264;11.918;2023-05-09T13:40:15;95353.69;;;23.57;26.93
40946;BME280;55635;50.264;11.918;2023-05-09T13:42:56;95362.31;;;23.64;28.31
40946;BME280;55635;50.264;11.918;2023-05-09T13:45:37;95348.97;;;23.98;28.71
40946;BME280;55635;50.264;11.918;2023-05-09T13:48:23;95350.34;;;23.95;28.17
40946;BME280;55635;50.264;11.918;2023-05-09T13:51:04;95350.50;;;24.98;27.00
40946;BME280;55635;50.264;11.918;2023-05-09T13:53:47;95344.44;;;23.78;25.08
40946;BME280;55635;50.264;11.918;2023-05-09T13:56:28;95349.09;;;23.47;27.59
40946;BME280;55635;50.264;11.918;2023-05-09T13:59:10;95354.03;;;22.43;29.39
40946;BME280;55635;50.264;11.918;2023-05-09T14:01:51;95340.94;;;23.77;29.01
40946;BME280;55635;50.264;11.918;2023-05-09T14:04:32;95343.91;;;23.61;27.29
40946;BME280;55635;50.264;11.918;2023-05-09T14:07:13;95334.19;;;23.50;27.84
40946;BME280;55635;50.264;11.918;2023-05-09T14:09:56;95334.16;;;23.85;27.63
40946;BME280;55635;50.264;11.918;2023-05-09T14:12:39;95329.06;;;23.48;29.01
40946;BME280;55635;50.264;11.918;2023-05-09T14:15:20;95325.44;;;22.52;25.44
40946;BME280;55635;50.264;11.918;2023-05-09T14:18:01;95336.59;;;22.86;26.97
40946;BME280;55635;50.264;11.918;2023-05-09T14:20:42;95325.63;;;22.25;28.06
40946;BME280;55635;50.264;11.918;2023-05-09T14:23:23;95325.13;;;22.48;28.09
40946;BME280;55635;50.264;11.918;2023-05-09T14:26:04;95322.69;;;22.42;28.21
40946;BME280;55635;50.264;11.918;2023-05-09T14:28:45;95323.38;;;21.60;26.79
40946;BME280;55635;50.264;11.918;2023-05-09T14:31:25;95330.78;;;21.80;30.62
40946;BME280;55635;50.264;11.918;2023-05-09T14:34:06;95324.59;;;22.41;27.39
40946;BME280;55635;50.264;11.918;2023-05-09T14:36:48;95322.81;;;22.00;26.58
40946;BME280;55635;50.264;11.918;2023-05-09T14:39:29;95318.13;;;21.80;27.25